sensor_id;sensor_type;location;lat;lon;timestamp;P1;P2;P0
49708;PMS5003;35601;55.902;13.606;2023-11-21T00:00:08;13;12;
49708;PMS5003;35601;55.902;13.606;2023-11-21T00:02:34;18;17;
49708;PMS5003;35601;55.902;13.606;2023-11-21T00:04:59;16;15;
49708;PMS5003;35601;55.902;13.606;2023-11-21T00:07:24;16;15;
49708;PMS5003;35601;55.902;13.606;2023-11-21T00:09:49;15;15;
49708;PMS5003;35601;55.902;13.606;2023-11-21T00:12:14;18;17;
49708;PMS5003;35601;55.902;13.606;2023-11-21T00:14:40;17;16;
49708;PMS5003;35601;55.902;13.606;2023-11-21T00:17:06;17;17;
49708;PMS5003;35601;55.902;13.606;2023-11-21T00:19:31;16;15;
49708;PMS5003;35601;55.902;13.606;2023-11-21T00:21:57;12;12;
49708;PMS5003;35601;55.902;13.606;2023-11-21T00:24:22;18;16;
49708;PMS5003;35601;55.902;13.606;2023-11-21T00:26:48;16;12;
49708;PMS5003;35601;55.902;13.606;2023-11-21T00:29:13;15;14;
49708;PMS5003;35601;55.902;13.606;2023-11-21T00:31:38;16;16;
49708;PMS5003;35601;55.902;13.606;2023-11-21T00:34:04;19;19;
49708;PMS5003;35601;55.902;13.606;2023-11-21T00:36:29;19;16;
49708;PMS5003;35601;55.902;13.606;2023-11-21T00:38:55;17;16;
49708;PMS5003;35601;55.902;13.606;2023-11-21T00:41:21;16;14;
49708;PMS5003;35601;55.902;13.606;2023-11-21T00:43:46;16;13;
49708;PMS5003;35601;55.902;13.606;2023-11-21T00:46:11;15;15;
49708;PMS5003;35601;55.902;13.606;2023-11-21T00:48:36;17;13;
49708;PMS5003;35601;55.902;13.606;2023-11-21T00:51:01;16;14;
49708;PMS5003;35601;55.902;13.606;2023-11-21T00:53:27;18;17;
49708;PMS5003;35601;55.902;13.606;2023-11-21T00:55:52;18;15;
49708;PMS5003;35601;55.902;13.606;2023-11-21T00:58:17;14;14;
49708;PMS5003;35601;55.902;13.606;2023-11-21T01:00:42;15;15;
49708;PMS5003;35601;55.902;13.606;2023-11-21T01:03:08;20;19;
49708;PMS5003;35601;55.902;13.606;2023-11-21T01:05:33;18;16;
49708;PMS5003;35601;55.902;13.606;2023-11-21T01:07:58;12;12;
49708;PMS5003;35601;55.902;13.606;2023-11-21T01:10:23;18;15;
49708;PMS5003;35601;55.902;13.606;2023-11-21T01:12:49;17;16;
49708;PMS5003;35601;55.902;13.606;2023-11-21T01:15:14;17;16;
49708;PMS5003;35601;55.902;13.606;2023-11-21T01:17:40;16;16;
49708;PMS5003;35601;55.902;13.606;2023-11-21T01:20:05;15;14;
49708;PMS5003;35601;55.902;13.606;2023-11-21T01:22:30;20;19;
49708;PMS5003;35601;55.902;13.606;2023-11-21T01:24:55;16;12;
49708;PMS5003;35601;55.902;13.606;2023-11-21T01:27:20;19;15;
49708;PMS5003;35601;55.902;13.606;2023-11-21T01:29:45;16;12;
49708;PMS5003;35601;55.902;13.606;2023-11-21T01:32:10;18;16;
49708;PMS5003;35601;55.902;13.606;2023-11-21T01:34:37;15;15;
49708;PMS5003;35601;55.902;13.606;2023-11-21T01:37:01;15;15;
49708;PMS5003;35601;55.902;13.606;2023-11-21T01:39:27;17;14;
49708;PMS5003;35601;55.902;13.606;2023-11-21T01:41:52;14;14;
49708;PMS5003;35601;55.902;13.606;2023-11-21T01:44:17;20;16;
49708;PMS5003;35601;55.902;13.606;2023-11-21T01:46:43;15;15;
49708;PMS5003;35601;55.902;13.606;2023-11-21T01:49:09;12;12;
49708;PMS5003;35601;55.902;13.606;2023-11-21T01:51:34;17;14;
49708;PMS5003;35601;55.902;13.606;2023-11-21T01:53:59;15;15;
49708;PMS5003;35601;55.902;13.606;2023-11-21T01:56:24;17;17;
49708;PMS5003;35601;55.902;13.606;2023-11-21T01:58:50;16;14;
49708;PMS5003;35601;55.902;13.606;2023-11-21T02:01:15;17;12;
49708;PMS5003;35601;55.902;13.606;2023-11-21T02:03:41;17;12;
49708;PMS5003;35601;55.902;13.606;2023-11-21T02:06:06;19;16;
49708;PMS5003;35601;55.902;13.606;2023-11-21T02:08:31;13;12;
49708;PMS5003;35601;55.902;13.606;2023-11-21T02:10:56;18;14;
49708;PMS5003;35601;55.902;13.606;2023-11-21T02:13:22;22;17;
49708;PMS5003;35601;55.902;13.606;2023-11-21T02:15:47;19;17;
49708;PMS5003;35601;55.902;13.606;2023-11-21T02:18:13;20;17;
49708;PMS5003;35601;55.902;13.606;2023-11-21T02:20:38;17;14;
49708;PMS5003;35601;55.902;13.606;2023-11-21T02:23:04;20;17;
49708;PMS5003;35601;55.902;13.606;2023-11-21T02:25:29;12;12;
49708;PMS5003;35601;55.902;13.606;2023-11-21T02:27:54;15;14;
49708;PMS5003;35601;55.902;13.606;2023-11-21T02:30:19;17;16;
49708;PMS5003;35601;55.902;13.606;2023-11-21T02:32:44;14;14;
49708;PMS5003;35601;55.902;13.606;2023-11-21T02:35:09;14;11;
49708;PMS5003;35601;55.902;13.606;2023-11-21T02:37:34;15;12;
49708;PMS5003;35601;55.902;13.606;2023-11-21T02:39:59;15;13;
49708;PMS5003;35601;55.902;13.606;2023-11-21T02:42:25;18;17;
49708;PMS5003;35601;55.902;13.606;2023-11-21T02:44:50;14;11;
49708;PMS5003;35601;55.902;13.606;2023-11-21T02:47:15;18;15;
49708;PMS5003;35601;55.902;13.606;2023-11-21T02:49:41;13;12;
49708;PMS5003;35601;55.902;13.606;2023-11-21T02:52:06;14;14;
49708;PMS5003;35601;55.902;13.606;2023-11-21T02:54:31;22;16;
49708;PMS5003;35601;55.902;13.606;2023-11-21T02:56:56;16;15;
49708;PMS5003;35601;55.902;13.606;2023-11-21T02:59:21;16;14;
49708;PMS5003;35601;55.902;13.606;2023-11-21T03:01:46;18;14;
49708;PMS5003;35601;55.902;13.606;2023-11-21T03:04:12;20;16;
49708;PMS5003;35601;55.902;13.606;2023-11-21T03:06:36;18;17;
49708;PMS5003;35601;55.902;13.606;2023-11-21T03:09:02;14;12;
49708;PMS5003;35601;55.902;13.606;2023-11-21T03:11:27;19;16;
49708;PMS5003;35601;55.902;13.606;2023-11-21T03:13:52;16;14;
49708;PMS5003;35601;55.902;13.606;2023-11-21T03:16:17;17;15;
49708;PMS5003;35601;55.902;13.606;2023-11-21T03:18:42;19;14;
49708;PMS5003;35601;55.902;13.606;2023-11-21T03:21:08;15;12;
49708;PMS5003;35601;55.902;13.606;2023-11-21T03:23:33;15;15;
49708;PMS5003;35601;55.902;13.606;2023-11-21T03:25:58;12;11;
49708;PMS5003;35601;55.902;13.606;2023-11-21T03:28:24;19;16;
49708;PMS5003;35601;55.902;13.606;2023-11-21T03:30:49;14;12;
49708;PMS5003;35601;55.902;13.606;2023-11-21T03:33:14;14;12;
49708;PMS5003;35601;55.902;13.606;2023-11-21T03:35:39;16;15;
49708;PMS5003;35601;55.902;13.606;2023-11-21T03:38:04;15;11;
49708;PMS5003;35601;55.902;13.606;2023-11-21T03:40:29;17;14;
49708;PMS5003;35601;55.902;13.606;2023-11-21T03:42:54;17;17;
49708;PMS5003;35601;55.902;13.606;2023-11-21T03:45:20;17;15;
49708;PMS5003;35601;55.902;13.606;2023-11-21T03:47:45;16;14;
49708;PMS5003;35601;55.902;13.606;2023-11-21T03:50:11;16;12;
49708;PMS5003;35601;55.902;13.606;2023-11-21T03:52:36;18;16;
49708;PMS5003;35601;55.902;13.606;2023-11-21T03:55:01;15;12;
49708;PMS5003;35601;55.902;13.606;2023-11-21T03:57:27;16;11;
49708;PMS5003;35601;55.902;13.606;2023-11-21T03:59:51;16;14;
49708;PMS5003;35601;55.902;13.606;2023-11-21T04:02:17;15;14;
49708;PMS5003;35601;55.902;13.606;2023-11-21T04:04:42;23;20;
49708;PMS5003;35601;55.902;13.606;2023-11-21T04:07:07;19;15;
49708;PMS5003;35601;55.902;13.606;2023-11-21T04:09:32;18;16;
49708;PMS5003;35601;55.902;13.606;2023-11-21T04:11:57;12;11;
49708;PMS5003;35601;55.902;13.606;2023-11-21T04:14:23;15;12;
49708;PMS5003;35601;55.902;13.606;2023-11-21T04:16:48;12;11;
49708;PMS5003;35601;55.902;13.606;2023-11-21T04:19:14;19;15;
49708;PMS5003;35601;55.902;13.606;2023-11-21T04:21:40;11;11;
49708;PMS5003;35601;55.902;13.606;2023-11-21T04:24:05;12;11;
49708;PMS5003;35601;55.902;13.606;2023-11-21T04:26:30;23;16;
49708;PMS5003;35601;55.902;13.606;2023-11-21T04:28:56;18;12;
49708;PMS5003;35601;55.902;13.606;2023-11-21T04:31:21;17;14;
49708;PMS5003;35601;55.902;13.606;2023-11-21T04:33:46;16;16;
49708;PMS5003;35601;55.902;13.606;2023-11-21T04:36:11;15;12;
49708;PMS5003;35601;55.902;13.606;2023-11-21T04:38:36;17;16;
49708;PMS5003;35601;55.902;13.606;2023-11-21T04:41:01;11;10;
49708;PMS5003;35601;55.902;13.606;2023-11-21T04:43:27;11;11;
49708;PMS5003;35601;55.902;13.606;2023-11-21T04:45:52;15;12;
49708;PMS5003;35601;55.902;13.606;2023-11-21T04:48:17;16;11;
49708;PMS5003;35601;55.902;13.606;2023-11-21T04:50:42;14;11;
49708;PMS5003;35601;55.902;13.606;2023-11-21T04:53:08;14;10;
49708;PMS5003;35601;55.902;13.606;2023-11-21T04:55:33;10;9;
49708;PMS5003;35601;55.902;13.606;2023-11-21T04:57:58;21;18;
49708;PMS5003;35601;55.902;13.606;2023-11-21T05:00:24;12;12;
49708;PMS5003;35601;55.902;13.606;2023-11-21T05:02:49;12;10;
49708;PMS5003;35601;55.902;13.606;2023-11-21T05:05:14;18;17;
49708;PMS5003;35601;55.902;13.606;2023-11-21T05:07:40;18;12;
49708;PMS5003;35601;55.902;13.606;2023-11-21T05:10:06;18;15;
49708;PMS5003;35601;55.902;13.606;2023-11-21T05:12:31;15;15;
49708;PMS5003;35601;55.902;13.606;2023-11-21T05:14:57;13;12;
49708;PMS5003;35601;55.902;13.606;2023-11-21T05:17:22;16;13;
49708;PMS5003;35601;55.902;13.606;2023-11-21T05:19:48;15;12;
49708;PMS5003;35601;55.902;13.606;2023-11-21T05:22:13;17;13;
49708;PMS5003;35601;55.902;13.606;2023-11-21T05:24:38;12;11;
49708;PMS5003;35601;55.902;13.606;2023-11-21T05:27:04;18;12;
49708;PMS5003;35601;55.902;13.606;2023-11-21T05:29:29;17;16;
49708;PMS5003;35601;55.902;13.606;2023-11-21T05:31:55;15;12;
49708;PMS5003;35601;55.902;13.606;2023-11-21T05:34:20;9;9;
49708;PMS5003;35601;55.902;13.606;2023-11-21T05:36:45;12;11;
49708;PMS5003;35601;55.902;13.606;2023-11-21T05:39:10;18;14;
49708;PMS5003;35601;55.902;13.606;2023-11-21T05:41:36;15;15;
49708;PMS5003;35601;55.902;13.606;2023-11-21T05:44:01;15;13;
49708;PMS5003;35601;55.902;13.606;2023-11-21T05:46:26;16;15;
49708;PMS5003;35601;55.902;13.606;2023-11-21T05:48:52;13;12;
49708;PMS5003;35601;55.902;13.606;2023-11-21T05:51:17;13;13;
49708;PMS5003;35601;55.902;13.606;2023-11-21T05:53:43;12;10;
49708;PMS5003;35601;55.902;13.606;2023-11-21T05:56:08;17;14;
49708;PMS5003;35601;55.902;13.606;2023-11-21T05:58:33;11;8;
49708;PMS5003;35601;55.902;13.606;2023-11-21T06:00:59;18;14;
49708;PMS5003;35601;55.902;13.606;2023-11-21T06:03:25;13;10;
49708;PMS5003;35601;55.902;13.606;2023-11-21T06:05:50;13;11;
49708;PMS5003;35601;55.902;13.606;2023-11-21T06:08:15;13;12;
49708;PMS5003;35601;55.902;13.606;2023-11-21T06:10:41;18;17;
49708;PMS5003;35601;55.902;13.606;2023-11-21T06:13:06;12;12;
49708;PMS5003;35601;55.902;13.606;2023-11-21T06:15:32;17;13;
49708;PMS5003;35601;55.902;13.606;2023-11-21T06:17:57;13;11;
49708;PMS5003;35601;55.902;13.606;2023-11-21T06:20:23;11;11;
49708;PMS5003;35601;55.902;13.606;2023-11-21T06:22:49;17;15;
49708;PMS5003;35601;55.902;13.606;2023-11-21T06:25:14;13;12;
49708;PMS5003;35601;55.902;13.606;2023-11-21T06:27:40;24;21;
49708;PMS5003;35601;55.902;13.606;2023-11-21T06:30:05;11;11;
49708;PMS5003;35601;55.902;13.606;2023-11-21T06:32:30;10;10;
49708;PMS5003;35601;55.902;13.606;2023-11-21T06:34:55;16;14;
49708;PMS5003;35601;55.902;13.606;2023-11-21T06:37:21;20;19;
49708;PMS5003;35601;55.902;13.606;2023-11-21T06:39:46;19;17;
49708;PMS5003;35601;55.902;13.606;2023-11-21T06:42:11;11;11;
49708;PMS5003;35601;55.902;13.606;2023-11-21T06:44:37;12;11;
49708;PMS5003;35601;55.902;13.606;2023-11-21T06:47:02;20;14;
49708;PMS5003;35601;55.902;13.606;2023-11-21T06:49:28;21;18;
49708;PMS5003;35601;55.902;13.606;2023-11-21T06:51:53;20;17;
49708;PMS5003;35601;55.902;13.606;2023-11-21T06:54:19;23;21;
49708;PMS5003;35601;55.902;13.606;2023-11-21T06:56:44;22;16;
49708;PMS5003;35601;55.902;13.606;2023-11-21T06:59:10;35;27;
49708;PMS5003;35601;55.902;13.606;2023-11-21T07:01:35;20;13;
49708;PMS5003;35601;55.902;13.606;2023-11-21T07:04:00;20;17;
49708;PMS5003;35601;55.902;13.606;2023-11-21T07:06:26;17;17;
49708;PMS5003;35601;55.902;13.606;2023-11-21T07:08:51;23;21;
49708;PMS5003;35601;55.902;13.606;2023-11-21T07:11:17;71;69;
49708;PMS5003;35601;55.902;13.606;2023-11-21T07:13:42;28;21;
49708;PMS5003;35601;55.902;13.606;2023-11-21T07:16:08;25;24;
49708;PMS5003;35601;55.902;13.606;2023-11-21T07:18:33;24;20;
49708;PMS5003;35601;55.902;13.606;2023-11-21T07:20:58;15;14;
49708;PMS5003;35601;55.902;13.606;2023-11-21T07:23:23;23;18;
49708;PMS5003;35601;55.902;13.606;2023-11-21T07:25:48;16;16;
49708;PMS5003;35601;55.902;13.606;2023-11-21T07:28:14;27;23;
49708;PMS5003;35601;55.902;13.606;2023-11-21T07:30:39;20;19;
49708;PMS5003;35601;55.902;13.606;2023-11-21T07:33:04;27;20;
49708;PMS5003;35601;55.902;13.606;2023-11-21T07:35:30;19;16;
49708;PMS5003;35601;55.902;13.606;2023-11-21T07:37:55;19;18;
49708;PMS5003;35601;55.902;13.606;2023-11-21T07:40:20;11;11;
49708;PMS5003;35601;55.902;13.606;2023-11-21T07:42:45;23;18;
49708;PMS5003;35601;55.902;13.606;2023-11-21T07:45:10;13;10;
49708;PMS5003;35601;55.902;13.606;2023-11-21T07:47:35;13;10;
49708;PMS5003;35601;55.902;13.606;2023-11-21T07:52:26;17;16;
49708;PMS5003;35601;55.902;13.606;2023-11-21T07:54:51;15;13;
49708;PMS5003;35601;55.902;13.606;2023-11-21T07:57:17;15;12;
49708;PMS5003;35601;55.902;13.606;2023-11-21T07:59:43;13;10;
49708;PMS5003;35601;55.902;13.606;2023-11-21T08:02:08;15;13;
49708;PMS5003;35601;55.902;13.606;2023-11-21T08:04:34;19;16;
49708;PMS5003;35601;55.902;13.606;2023-11-21T08:06:59;18;14;
49708;PMS5003;35601;55.902;13.606;2023-11-21T08:09:24;13;10;
49708;PMS5003;35601;55.902;13.606;2023-11-21T08:11:49;10;10;
49708;PMS5003;35601;55.902;13.606;2023-11-21T08:14:15;29;26;
49708;PMS5003;35601;55.902;13.606;2023-11-21T08:16:40;22;21;
49708;PMS5003;35601;55.902;13.606;2023-11-21T08:19:06;22;22;
49708;PMS5003;35601;55.902;13.606;2023-11-21T08:21:31;19;15;
49708;PMS5003;35601;55.902;13.606;2023-11-21T08:23:57;14;13;
49708;PMS5003;35601;55.902;13.606;2023-11-21T08:26:22;11;8;
49708;PMS5003;35601;55.902;13.606;2023-11-21T08:28:47;8;7;
49708;PMS5003;35601;55.902;13.606;2023-11-21T08:31:12;14;13;
49708;PMS5003;35601;55.902;13.606;2023-11-21T08:33:38;15;11;
49708;PMS5003;35601;55.902;13.606;2023-11-21T08:36:06;14;14;
49708;PMS5003;35601;55.902;13.606;2023-11-21T08:38:29;17;16;
49708;PMS5003;35601;55.902;13.606;2023-11-21T08:40:54;8;8;
49708;PMS5003;35601;55.902;13.606;2023-11-21T08:43:20;7;6;
49708;PMS5003;35601;55.902;13.606;2023-11-21T08:45:45;8;8;
49708;PMS5003;35601;55.902;13.606;2023-11-21T08:48:11;6;6;
49708;PMS5003;35601;55.902;13.606;2023-11-21T08:50:36;11;8;
49708;PMS5003;35601;55.902;13.606;2023-11-21T08:53:01;7;7;
49708;PMS5003;35601;55.902;13.606;2023-11-21T08:55:26;7;7;
49708;PMS5003;35601;55.902;13.606;2023-11-21T08:57:52;8;7;
49708;PMS5003;35601;55.902;13.606;2023-11-21T09:00:18;9;7;
49708;PMS5003;35601;55.902;13.606;2023-11-21T09:02:43;7;7;
49708;PMS5003;35601;55.902;13.606;2023-11-21T09:05:08;7;5;
49708;PMS5003;35601;55.902;13.606;2023-11-21T09:07:33;6;5;
49708;PMS5003;35601;55.902;13.606;2023-11-21T09:09:59;6;5;
49708;PMS5003;35601;55.902;13.606;2023-11-21T09:12:25;7;6;
49708;PMS5003;35601;55.902;13.606;2023-11-21T09:14:49;7;5;
49708;PMS5003;35601;55.902;13.606;2023-11-21T09:17:15;6;6;
49708;PMS5003;35601;55.902;13.606;2023-11-21T09:19:40;6;6;
49708;PMS5003;35601;55.902;13.606;2023-11-21T09:22:06;7;7;
49708;PMS5003;35601;55.902;13.606;2023-11-21T09:24:31;10;6;
49708;PMS5003;35601;55.902;13.606;2023-11-21T09:26:56;6;6;
49708;PMS5003;35601;55.902;13.606;2023-11-21T09:29:22;5;5;
49708;PMS5003;35601;55.902;13.606;2023-11-21T09:31:47;7;6;
49708;PMS5003;35601;55.902;13.606;2023-11-21T09:34:12;6;5;
49708;PMS5003;35601;55.902;13.606;2023-11-21T09:36:38;8;7;
49708;PMS5003;35601;55.902;13.606;2023-11-21T09:39:03;5;5;
49708;PMS5003;35601;55.902;13.606;2023-11-21T09:41:30;8;7;
49708;PMS5003;35601;55.902;13.606;2023-11-21T09:43:54;6;5;
49708;PMS5003;35601;55.902;13.606;2023-11-21T09:46:19;6;6;
49708;PMS5003;35601;55.902;13.606;2023-11-21T09:48:45;7;6;
49708;PMS5003;35601;55.902;13.606;2023-11-21T09:51:10;8;6;
49708;PMS5003;35601;55.902;13.606;2023-11-21T09:53:35;5;5;
49708;PMS5003;35601;55.902;13.606;2023-11-21T09:56:01;7;6;
49708;PMS5003;35601;55.902;13.606;2023-11-21T09:58:26;8;8;
49708;PMS5003;35601;55.902;13.606;2023-11-21T10:00:52;6;6;
49708;PMS5003;35601;55.902;13.606;2023-11-21T10:03:16;25;22;
49708;PMS5003;35601;55.902;13.606;2023-11-21T10:05:42;26;21;
49708;PMS5003;35601;55.902;13.606;2023-11-21T10:08:08;6;6;
49708;PMS5003;35601;55.902;13.606;2023-11-21T10:10:32;10;8;
49708;PMS5003;35601;55.902;13.606;2023-11-21T10:12:59;10;10;
49708;PMS5003;35601;55.902;13.606;2023-11-21T10:15:23;6;4;
49708;PMS5003;35601;55.902;13.606;2023-11-21T10:17:48;6;6;
49708;PMS5003;35601;55.902;13.606;2023-11-21T10:20:14;7;5;
49708;PMS5003;35601;55.902;13.606;2023-11-21T10:22:39;11;8;
49708;PMS5003;35601;55.902;13.606;2023-11-21T10:25:05;5;5;
49708;PMS5003;35601;55.902;13.606;2023-11-21T10:27:30;4;4;
49708;PMS5003;35601;55.902;13.606;2023-11-21T10:29:55;5;4;
49708;PMS5003;35601;55.902;13.606;2023-11-21T10:32:20;9;9;
49708;PMS5003;35601;55.902;13.606;2023-11-21T10:37:11;8;5;
49708;PMS5003;35601;55.902;13.606;2023-11-21T10:39:36;9;5;
49708;PMS5003;35601;55.902;13.606;2023-11-21T10:42:01;7;7;
49708;PMS5003;35601;55.902;13.606;2023-11-21T10:44:26;8;8;
49708;PMS5003;35601;55.902;13.606;2023-11-21T10:46:52;9;7;
49708;PMS5003;35601;55.902;13.606;2023-11-21T10:49:17;7;7;
49708;PMS5003;35601;55.902;13.606;2023-11-21T10:51:43;5;3;
49708;PMS5003;35601;55.902;13.606;2023-11-21T10:54:07;6;4;
49708;PMS5003;35601;55.902;13.606;2023-11-21T10:56:33;7;5;
49708;PMS5003;35601;55.902;13.606;2023-11-21T10:58:58;5;4;
49708;PMS5003;35601;55.902;13.606;2023-11-21T11:01:24;7;6;
49708;PMS5003;35601;55.902;13.606;2023-11-21T11:03:49;7;5;
49708;PMS5003;35601;55.902;13.606;2023-11-21T11:06:14;6;6;
49708;PMS5003;35601;55.902;13.606;2023-11-21T11:08:40;4;4;
49708;PMS5003;35601;55.902;13.606;2023-11-21T11:11:05;6;5;
49708;PMS5003;35601;55.902;13.606;2023-11-21T11:13:30;8;6;
49708;PMS5003;35601;55.902;13.606;2023-11-21T11:15:57;5;5;
49708;PMS5003;35601;55.902;13.606;2023-11-21T11:18:21;9;8;
49708;PMS5003;35601;55.902;13.606;2023-11-21T11:20:46;6;6;
49708;PMS5003;35601;55.902;13.606;2023-11-21T11:23:16;7;7;
49708;PMS5003;35601;55.902;13.606;2023-11-21T11:25:41;19;16;
49708;PMS5003;35601;55.902;13.606;2023-11-21T11:28:04;9;6;
49708;PMS5003;35601;55.902;13.606;2023-11-21T11:30:35;3;3;
49708;PMS5003;35601;55.902;13.606;2023-11-21T11:32:54;5;5;
49708;PMS5003;35601;55.902;13.606;2023-11-21T11:35:19;7;6;
49708;PMS5003;35601;55.902;13.606;2023-11-21T11:37:44;5;5;
49708;PMS5003;35601;55.902;13.606;2023-11-21T11:40:10;8;4;
49708;PMS5003;35601;55.902;13.606;2023-11-21T11:42:34;7;7;
49708;PMS5003;35601;55.902;13.606;2023-11-21T11:45:00;12;8;
49708;PMS5003;35601;55.902;13.606;2023-11-21T11:47:26;9;9;
49708;PMS5003;35601;55.902;13.606;2023-11-21T11:49:55;8;6;
49708;PMS5003;35601;55.902;13.606;2023-11-21T11:54:42;9;6;
49708;PMS5003;35601;55.902;13.606;2023-11-21T11:57:07;11;9;
49708;PMS5003;35601;55.902;13.606;2023-11-21T11:59:37;7;5;
49708;PMS5003;35601;55.902;13.606;2023-11-21T12:01:58;9;7;
49708;PMS5003;35601;55.902;13.606;2023-11-21T12:04:24;10;8;
49708;PMS5003;35601;55.902;13.606;2023-11-21T12:06:51;8;6;
49708;PMS5003;35601;55.902;13.606;2023-11-21T12:09:17;9;8;
49708;PMS5003;35601;55.902;13.606;2023-11-21T12:11:41;5;5;
49708;PMS5003;35601;55.902;13.606;2023-11-21T12:14:05;6;6;
49708;PMS5003;35601;55.902;13.606;2023-11-21T12:16:32;4;4;
49708;PMS5003;35601;55.902;13.606;2023-11-21T12:18:55;13;9;
49708;PMS5003;35601;55.902;13.606;2023-11-21T12:21:21;9;9;
49708;PMS5003;35601;55.902;13.606;2023-11-21T12:23:46;8;6;
49708;PMS5003;35601;55.902;13.606;2023-11-21T12:26:11;7;7;
49708;PMS5003;35601;55.902;13.606;2023-11-21T12:28:37;5;5;
49708;PMS5003;35601;55.902;13.606;2023-11-21T12:31:02;6;5;
49708;PMS5003;35601;55.902;13.606;2023-11-21T12:33:28;7;7;
49708;PMS5003;35601;55.902;13.606;2023-11-21T12:35:53;6;6;
49708;PMS5003;35601;55.902;13.606;2023-11-21T12:38:18;5;5;
49708;PMS5003;35601;55.902;13.606;2023-11-21T12:40:44;9;8;
49708;PMS5003;35601;55.902;13.606;2023-11-21T12:43:09;10;8;
49708;PMS5003;35601;55.902;13.606;2023-11-21T12:45:34;7;7;
49708;PMS5003;35601;55.902;13.606;2023-11-21T12:48:00;6;5;
49708;PMS5003;35601;55.902;13.606;2023-11-21T12:50:26;8;6;
49708;PMS5003;35601;55.902;13.606;2023-11-21T12:52:51;7;6;
49708;PMS5003;35601;55.902;13.606;2023-11-21T12:55:16;8;8;
49708;PMS5003;35601;55.902;13.606;2023-11-21T12:57:42;9;8;
49708;PMS5003;35601;55.902;13.606;2023-11-21T13:00:07;6;6;
49708;PMS5003;35601;55.902;13.606;2023-11-21T13:02:32;6;6;
49708;PMS5003;35601;55.902;13.606;2023-11-21T13:04:57;9;8;
49708;PMS5003;35601;55.902;13.606;2023-11-21T13:07:22;10;8;
49708;PMS5003;35601;55.902;13.606;2023-11-21T13:09:50;6;5;
49708;PMS5003;35601;55.902;13.606;2023-11-21T13:12:14;9;8;
49708;PMS5003;35601;55.902;13.606;2023-11-21T13:14:39;13;13;
49708;PMS5003;35601;55.902;13.606;2023-11-21T13:17:03;20;17;
49708;PMS5003;35601;55.902;13.606;2023-11-21T13:19:28;21;17;
49708;PMS5003;35601;55.902;13.606;2023-11-21T13:21:53;8;8;
49708;PMS5003;35601;55.902;13.606;2023-11-21T13:24:19;10;8;
49708;PMS5003;35601;55.902;13.606;2023-11-21T13:26:44;7;6;
49708;PMS5003;35601;55.902;13.606;2023-11-21T13:29:10;9;8;
49708;PMS5003;35601;55.902;13.606;2023-11-21T13:31:35;6;5;
49708;PMS5003;35601;55.902;13.606;2023-11-21T13:34:00;8;4;
49708;PMS5003;35601;55.902;13.606;2023-11-21T13:36:26;11;11;
49708;PMS5003;35601;55.902;13.606;2023-11-21T13:38:52;12;12;
49708;PMS5003;35601;55.902;13.606;2023-11-21T13:41:17;7;7;
49708;PMS5003;35601;55.902;13.606;2023-11-21T13:43:42;9;8;
49708;PMS5003;35601;55.902;13.606;2023-11-21T13:46:08;11;7;
49708;PMS5003;35601;55.902;13.606;2023-11-21T13:48:33;12;11;
49708;PMS5003;35601;55.902;13.606;2023-11-21T13:50:58;15;11;
49708;PMS5003;35601;55.902;13.606;2023-11-21T13:53:23;15;15;
49708;PMS5003;35601;55.902;13.606;2023-11-21T13:55:48;8;8;
49708;PMS5003;35601;55.902;13.606;2023-11-21T13:58:14;22;20;
49708;PMS5003;35601;55.902;13.606;2023-11-21T14:00:39;28;22;
49708;PMS5003;35601;55.902;13.606;2023-11-21T14:03:05;20;16;
49708;PMS5003;35601;55.902;13.606;2023-11-21T14:05:30;12;11;
49708;PMS5003;35601;55.902;13.606;2023-11-21T14:07:55;19;17;
49708;PMS5003;35601;55.902;13.606;2023-11-21T14:10:21;26;25;
49708;PMS5003;35601;55.902;13.606;2023-11-21T14:12:46;21;20;
49708;PMS5003;35601;55.902;13.606;2023-11-21T14:15:12;21;19;
49708;PMS5003;35601;55.902;13.606;2023-11-21T14:17:37;21;18;
49708;PMS5003;35601;55.902;13.606;2023-11-21T14:20:03;20;18;
49708;PMS5003;35601;55.902;13.606;2023-11-21T14:22:28;27;20;
49708;PMS5003;35601;55.902;13.606;2023-11-21T14:24:53;16;15;
49708;PMS5003;35601;55.902;13.606;2023-11-21T14:27:19;8;8;
49708;PMS5003;35601;55.902;13.606;2023-11-21T14:29:44;10;7;
49708;PMS5003;35601;55.902;13.606;2023-11-21T14:32:10;8;8;
49708;PMS5003;35601;55.902;13.606;2023-11-21T14:34:35;10;8;
49708;PMS5003;35601;55.902;13.606;2023-11-21T14:37:00;13;13;
49708;PMS5003;35601;55.902;13.606;2023-11-21T14:39:26;16;16;
49708;PMS5003;35601;55.902;13.606;2023-11-21T14:41:52;17;14;
49708;PMS5003;35601;55.902;13.606;2023-11-21T14:44:17;20;19;
49708;PMS5003;35601;55.902;13.606;2023-11-21T14:46:43;19;14;
49708;PMS5003;35601;55.902;13.606;2023-11-21T14:49:08;19;14;
49708;PMS5003;35601;55.902;13.606;2023-11-21T14:51:34;20;16;
49708;PMS5003;35601;55.902;13.606;2023-11-21T14:53:59;29;25;
49708;PMS5003;35601;55.902;13.606;2023-11-21T14:56:24;39;34;
49708;PMS5003;35601;55.902;13.606;2023-11-21T14:58:49;46;40;
49708;PMS5003;35601;55.902;13.606;2023-11-21T15:01:15;49;39;
49708;PMS5003;35601;55.902;13.606;2023-11-21T15:03:41;42;39;
49708;PMS5003;35601;55.902;13.606;2023-11-21T15:06:07;26;24;
49708;PMS5003;35601;55.902;13.606;2023-11-21T15:08:32;12;12;
49708;PMS5003;35601;55.902;13.606;2023-11-21T15:10:57;11;11;
49708;PMS5003;35601;55.902;13.606;2023-11-21T15:13:23;15;15;
49708;PMS5003;35601;55.902;13.606;2023-11-21T15:15:48;45;44;
49708;PMS5003;35601;55.902;13.606;2023-11-21T15:18:13;14;13;
49708;PMS5003;35601;55.902;13.606;2023-11-21T15:20:39;26;19;
49708;PMS5003;35601;55.902;13.606;2023-11-21T15:23:04;23;23;
49708;PMS5003;35601;55.902;13.606;2023-11-21T15:25:29;33;29;
49708;PMS5003;35601;55.902;13.606;2023-11-21T15:27:55;33;32;
49708;PMS5003;35601;55.902;13.606;2023-11-21T15:30:21;29;27;
49708;PMS5003;35601;55.902;13.606;2023-11-21T15:32:46;30;26;
49708;PMS5003;35601;55.902;13.606;2023-11-21T15:35:11;24;22;
49708;PMS5003;35601;55.902;13.606;2023-11-21T15:37:37;35;33;
49708;PMS5003;35601;55.902;13.606;2023-11-21T15:40:02;22;20;
49708;PMS5003;35601;55.902;13.606;2023-11-21T15:42:27;15;13;
49708;PMS5003;35601;55.902;13.606;2023-11-21T15:44:53;31;26;
49708;PMS5003;35601;55.902;13.606;2023-11-21T15:47:18;32;30;
49708;PMS5003;35601;55.902;13.606;2023-11-21T15:49:43;21;18;
49708;PMS5003;35601;55.902;13.606;2023-11-21T15:52:09;14;10;
49708;PMS5003;35601;55.902;13.606;2023-11-21T15:54:34;8;7;
49708;PMS5003;35601;55.902;13.606;2023-11-21T15:57:00;11;6;
49708;PMS5003;35601;55.902;13.606;2023-11-21T15:59:25;8;6;
49708;PMS5003;35601;55.902;13.606;2023-11-21T16:01:50;7;6;
49708;PMS5003;35601;55.902;13.606;2023-11-21T16:04:16;6;5;